createdAt,value
2022-09-21T00:01:05.984Z,62.84
2022-09-21T00:03:32.687Z,62.91
2022-09-21T00:06:07.147Z,62.94
2022-09-21T00:08:33.890Z,63.24
2022-09-21T00:11:00.970Z,63.24
2022-09-21T00:13:28.410Z,62.93
2022-09-21T00:15:58.150Z,63.36
2022-09-21T00:18:25.620Z,63.43
2022-09-21T00:20:52.926Z,63.42
2022-09-21T00:23:20.482Z,63.62
2022-09-21T00:25:47.318Z,63.71
2022-09-21T00:28:14.000Z,63.81
2022-09-21T00:30:40.718Z,63.49
2022-09-21T00:33:07.412Z,63.89
2022-09-21T00:35:35.283Z,63.91
2022-09-21T00:38:03.272Z,63.96
2022-09-21T00:40:30.374Z,63.83
2022-09-21T00:43:17.226Z,64.04
2022-09-21T00:45:47.331Z,63.96
2022-09-21T00:48:15.496Z,64.34
2022-09-21T00:50:49.310Z,64.33
2022-09-21T00:53:16.528Z,64.66
2022-09-21T00:55:51.587Z,64.81
2022-09-21T00:58:25.792Z,65.10
2022-09-21T01:00:52.676Z,65.06
2022-09-21T01:03:19.438Z,64.78
2022-09-21T01:05:46.370Z,65.13
2022-09-21T01:08:15.847Z,65.04
2022-09-21T01:10:54.202Z,65.13
2022-09-21T01:13:56.943Z,64.98
2022-09-21T01:16:32.707Z,65.27
2022-09-21T01:19:27.484Z,65.35
2022-09-21T01:22:15.616Z,65.15
2022-09-21T01:25:05.822Z,64.84
2022-09-21T01:27:46.129Z,65.00
2022-09-21T01:30:19.120Z,64.91
2022-09-21T01:33:00.215Z,64.98
2022-09-21T01:35:32.435Z,64.96
2022-09-21T01:38:15.398Z,65.01
2022-09-21T01:40:46.296Z,64.89
2022-09-21T01:43:18.738Z,64.92
2022-09-21T01:45:50.496Z,64.88
2022-09-21T01:48:21.966Z,64.98
2022-09-21T01:50:55.593Z,65.05
2022-09-21T01:53:31.115Z,65.06
2022-09-21T01:56:10.651Z,64.93
2022-09-21T01:58:48.419Z,64.84
2022-09-21T02:01:18.516Z,64.71
2022-09-21T02:03:57.744Z,64.88
2022-09-21T02:06:27.974Z,64.55
2022-09-21T02:08:55.366Z,64.60
2022-09-21T02:11:22.553Z,64.72
2022-09-21T02:13:52.664Z,64.72
2022-09-21T02:16:34.046Z,64.59
2022-09-21T02:19:30.274Z,64.59
2022-09-21T02:22:36.238Z,64.56
2022-09-21T02:25:11.404Z,64.50
2022-09-21T02:27:50.296Z,64.45
2022-09-21T02:30:23.545Z,64.35
2022-09-21T02:33:12.112Z,64.42
2022-09-21T02:35:47.200Z,64.28
2022-09-21T02:38:20.281Z,64.27
2022-09-21T02:40:51.160Z,64.20
2022-09-21T02:43:44.422Z,64.36
2022-09-21T02:46:20.598Z,64.23
2022-09-21T02:48:55.576Z,64.37
2022-09-21T02:51:29.402Z,64.28
2022-09-21T02:53:58.847Z,64.13
2022-09-21T02:56:26.828Z,64.38
2022-09-21T02:58:57.266Z,64.06
2022-09-21T03:01:26.840Z,64.11
2022-09-21T03:03:54.116Z,64.12
2022-09-21T03:06:20.784Z,63.97
2022-09-21T03:08:47.439Z,64.11
2022-09-21T03:11:20.521Z,64.11
2022-09-21T03:13:47.220Z,64.06
2022-09-21T03:16:14.289Z,64.29
2022-09-21T03:18:42.596Z,64.05
2022-09-21T03:21:09.580Z,64.10
2022-09-21T03:23:39.606Z,64.16
2022-09-21T03:26:06.652Z,64.01
2022-09-21T03:28:33.279Z,64.17
2022-09-21T03:31:00.316Z,63.86
2022-09-21T03:33:27.539Z,64.03
2022-09-21T03:35:54.311Z,64.12
2022-09-21T03:38:21.992Z,64.02
2022-09-21T03:40:50.212Z,63.85
2022-09-21T03:43:18.092Z,63.82
2022-09-21T03:45:45.732Z,63.96
2022-09-21T03:48:13.018Z,63.96
2022-09-21T03:50:40.140Z,63.81
2022-09-21T03:53:08.420Z,63.67
2022-09-21T03:55:35.391Z,64.06
2022-09-21T03:58:03.078Z,64.30
2022-09-21T04:00:30.268Z,64.23
2022-09-21T04:02:57.132Z,64.15
2022-09-21T04:05:24.063Z,64.20
2022-09-21T04:07:50.687Z,64.07
2022-09-21T04:10:20.192Z,64.37
2022-09-21T04:12:47.603Z,64.38
2022-09-21T04:15:17.969Z,64.53
2022-09-21T04:17:44.640Z,64.53
2022-09-21T04:20:12.397Z,64.42
2022-09-21T04:22:43.299Z,64.63
2022-09-21T04:25:11.379Z,64.60
2022-09-21T04:27:38.081Z,64.44
2022-09-21T04:30:06.032Z,64.27
2022-09-21T04:32:32.704Z,64.30
2022-09-21T04:34:59.346Z,64.48
2022-09-21T04:37:26.066Z,64.26
2022-09-21T04:39:52.757Z,64.23
2022-09-21T04:42:19.483Z,64.30
2022-09-21T04:44:46.101Z,64.65
2022-09-21T04:47:13.131Z,64.52
2022-09-21T04:49:40.171Z,64.36
2022-09-21T04:52:07.403Z,64.58
2022-09-21T04:54:34.044Z,64.51
2022-09-21T04:57:02.049Z,64.47
2022-09-21T04:59:28.701Z,64.55
2022-09-21T05:01:55.383Z,64.60
2022-09-21T05:04:22.023Z,64.46
2022-09-21T05:06:48.676Z,64.37
2022-09-21T05:09:34.201Z,64.73
2022-09-21T05:12:00.991Z,64.57
2022-09-21T05:14:27.665Z,64.78
2022-09-21T05:16:54.413Z,64.62
2022-09-21T05:19:21.097Z,64.40
2022-09-21T05:21:48.532Z,64.38
2022-09-21T05:24:15.917Z,64.62
2022-09-21T05:26:42.626Z,64.59
2022-09-21T05:29:09.598Z,64.77
2022-09-21T05:31:39.538Z,64.72
2022-09-21T05:34:36.143Z,64.86
2022-09-21T05:37:29.899Z,64.74
2022-09-21T05:39:56.769Z,64.87
2022-09-21T05:42:23.631Z,64.74
2022-09-21T05:44:50.782Z,64.95
2022-09-21T05:47:38.047Z,64.82
2022-09-21T05:50:35.500Z,64.90
2022-09-21T05:53:13.443Z,64.86
2022-09-21T05:55:44.150Z,64.97
2022-09-21T05:58:27.789Z,65.03
2022-09-21T06:01:15.472Z,64.98
2022-09-21T06:03:43.372Z,64.84
2022-09-21T06:06:10.248Z,65.02
2022-09-21T06:08:37.084Z,65.20
2022-09-21T06:11:03.919Z,65.07
2022-09-21T06:13:31.536Z,65.01
2022-09-21T06:16:01.381Z,64.99
2022-09-21T06:18:28.082Z,65.01
2022-09-21T06:20:54.811Z,64.99
2022-09-21T06:23:22.182Z,64.79
2022-09-21T06:25:57.601Z,64.82
2022-09-21T06:28:26.097Z,64.76
2022-09-21T06:30:54.338Z,64.83
2022-09-21T06:33:23.698Z,64.69
2022-09-21T06:35:54.621Z,64.79
2022-09-21T06:38:21.759Z,64.79
2022-09-21T06:40:48.505Z,64.62
2022-09-21T06:43:15.235Z,64.62
2022-09-21T06:45:42.017Z,64.63
2022-09-21T06:48:08.951Z,64.69
2022-09-21T06:50:36.435Z,64.66
2022-09-21T06:53:04.063Z,64.33
2022-09-21T06:55:31.741Z,64.29
2022-09-21T06:58:03.101Z,64.19
2022-09-21T07:00:31.335Z,64.02
2022-09-21T07:02:58.742Z,64.12
2022-09-21T07:05:25.729Z,63.89
2022-09-21T07:07:57.606Z,63.74
2022-09-21T07:10:25.846Z,63.60
2022-09-21T07:12:52.555Z,63.60
2022-09-21T07:15:19.590Z,63.36
2022-09-21T07:17:51.671Z,63.58
2022-09-21T07:20:19.037Z,63.18
2022-09-21T07:22:45.701Z,63.39
2022-09-21T07:25:12.451Z,63.52
2022-09-21T07:27:39.291Z,63.61
2022-09-21T07:30:06.981Z,63.69
2022-09-21T07:32:34.200Z,63.61
2022-09-21T07:35:01.104Z,63.30
2022-09-21T07:37:28.315Z,63.35
2022-09-21T07:39:55.064Z,63.12
2022-09-21T07:42:22.947Z,63.05
2022-09-21T07:44:50.914Z,63.00
2022-09-21T07:47:18.101Z,62.87
2022-09-21T07:49:47.199Z,62.59
2022-09-21T07:52:15.592Z,62.72
2022-09-21T07:54:42.298Z,62.48
2022-09-21T07:57:28.091Z,62.25
2022-09-21T07:59:58.359Z,62.44
2022-09-21T08:02:25.478Z,62.44
2022-09-21T08:04:52.287Z,62.32
2022-09-21T08:07:19.468Z,62.13
2022-09-21T08:09:49.813Z,61.87
2022-09-21T08:12:20.895Z,61.90
2022-09-21T08:14:48.239Z,62.02
2022-09-21T08:17:14.993Z,61.95
2022-09-21T08:19:42.000Z,62.04
2022-09-21T08:22:08.734Z,61.90
2022-09-21T08:24:35.572Z,61.84
2022-09-21T08:27:02.314Z,61.86
2022-09-21T08:29:29.885Z,62.02
2022-09-21T08:31:56.589Z,61.89
2022-09-21T08:34:24.198Z,61.69
2022-09-21T08:36:55.244Z,61.82
2022-09-21T08:39:22.677Z,61.80
2022-09-21T08:42:07.847Z,61.50
2022-09-21T08:44:51.550Z,61.69
2022-09-21T08:47:34.647Z,61.53
2022-09-21T08:50:04.207Z,61.44
2022-09-21T08:52:33.093Z,61.79
2022-09-21T08:55:18.388Z,61.52
2022-09-21T08:57:45.252Z,61.73
2022-09-21T09:00:19.330Z,61.77
2022-09-21T09:02:55.000Z,61.40
2022-09-21T09:05:42.810Z,61.08
2022-09-21T09:08:19.524Z,61.29
2022-09-21T09:11:08.082Z,60.98
2022-09-21T09:13:46.853Z,60.85
2022-09-21T09:16:32.407Z,60.51
2022-09-21T09:19:03.288Z,60.13
2022-09-21T09:21:39.042Z,59.62
2022-09-21T09:24:16.115Z,59.30
2022-09-21T09:27:03.939Z,59.20
2022-09-21T09:29:49.405Z,58.99
2022-09-21T09:32:18.505Z,58.99
2022-09-21T09:35:02.809Z,58.95
2022-09-21T09:37:37.751Z,59.23
2022-09-21T09:40:07.837Z,58.90
2022-09-21T09:42:50.496Z,59.00
2022-09-21T09:45:29.280Z,58.76
2022-09-21T09:48:07.953Z,58.99
2022-09-21T09:50:38.985Z,58.62
2022-09-21T09:53:13.664Z,58.06
2022-09-21T09:55:43.957Z,57.50
2022-09-21T09:58:36.893Z,57.38
2022-09-21T10:01:04.139Z,58.04
2022-09-21T10:03:31.214Z,57.67
2022-09-21T10:05:58.286Z,57.60
2022-09-21T10:08:27.955Z,57.22
2022-09-21T10:10:54.942Z,56.50
2022-09-21T10:13:30.669Z,56.64
2022-09-21T10:16:04.722Z,56.26
2022-09-21T10:18:53.236Z,55.23
2022-09-21T10:21:27.135Z,53.02
2022-09-21T10:24:24.387Z,49.58
2022-09-21T10:26:56.211Z,49.13
2022-09-21T10:29:22.888Z,47.48
2022-09-21T10:32:04.143Z,45.34
2022-09-21T10:34:35.557Z,44.19
2022-09-21T10:37:23.685Z,43.46
2022-09-21T10:39:50.356Z,43.36
2022-09-21T10:42:19.738Z,43.50
2022-09-21T10:44:49.178Z,43.22
2022-09-21T10:47:39.149Z,43.41
2022-09-21T10:50:23.506Z,43.96
2022-09-21T10:52:56.859Z,42.45
2022-09-21T10:55:25.419Z,40.95
2022-09-21T10:57:53.243Z,40.19
2022-09-21T11:00:26.019Z,38.50
2022-09-21T11:02:55.070Z,37.77
2022-09-21T11:05:27.143Z,37.59
2022-09-21T11:07:58.319Z,37.48
2022-09-21T11:10:34.702Z,37.85
2022-09-21T11:13:20.111Z,38.03
2022-09-21T11:16:21.191Z,38.28
2022-09-21T11:19:08.953Z,37.83
2022-09-21T11:21:39.627Z,37.54
2022-09-21T11:24:28.628Z,36.99
2022-09-21T11:27:18.304Z,37.29
2022-09-21T11:29:53.053Z,36.53
2022-09-21T11:32:57.400Z,36.40
2022-09-21T11:35:42.280Z,36.41
2022-09-21T11:38:13.479Z,36.84
2022-09-21T11:40:43.097Z,37.40
2022-09-21T11:43:22.853Z,37.27
2022-09-21T11:46:01.576Z,37.33
2022-09-21T11:49:05.839Z,37.77
2022-09-21T11:52:01.128Z,38.24
2022-09-21T11:54:48.216Z,39.05
2022-09-21T11:57:55.471Z,39.66
2022-09-21T12:00:25.144Z,40.20
2022-09-21T12:03:15.560Z,40.12
2022-09-21T12:05:54.360Z,40.68
2022-09-21T12:08:49.211Z,40.30
2022-09-21T12:11:21.784Z,40.33
2022-09-21T12:13:58.259Z,40.73
2022-09-21T12:16:47.223Z,40.58
2022-09-21T12:19:24.665Z,41.33
2022-09-21T12:22:03.969Z,41.58
2022-09-21T12:24:40.200Z,41.58
2022-09-21T12:27:45.083Z,42.65
2022-09-21T12:30:24.828Z,40.90
2022-09-21T12:33:10.283Z,39.32
2022-09-21T12:38:23.646Z,34.77
2022-09-21T12:40:51.822Z,32.71
2022-09-21T12:43:55.280Z,30.73
2022-09-21T12:46:29.619Z,29.52
2022-09-21T12:48:56.486Z,28.42
2022-09-21T12:51:37.152Z,27.78
2022-09-21T12:54:20.865Z,27.70
2022-09-21T12:57:23.436Z,27.62
2022-09-21T13:00:15.147Z,28.64
2022-09-21T13:02:49.739Z,28.66
2022-09-21T13:05:27.152Z,29.03
2022-09-21T13:07:59.422Z,29.63
2022-09-21T13:10:29.132Z,30.26
2022-09-21T13:13:03.312Z,30.49
2022-09-21T13:15:32.809Z,31.42
2022-09-21T13:18:04.362Z,31.50
2022-09-21T13:20:40.214Z,32.68
2022-09-21T13:23:18.346Z,32.85
2022-09-21T13:25:50.543Z,33.78
2022-09-21T13:28:24.022Z,34.16
2022-09-21T13:31:37.016Z,35.06
2022-09-21T13:34:09.066Z,35.07
2022-09-21T13:36:36.724Z,35.70
2022-09-21T13:39:09.934Z,36.16
2022-09-21T13:42:01.820Z,36.40
2022-09-21T13:44:44.450Z,36.91
2022-09-21T13:47:12.561Z,37.01
2022-09-21T13:49:51.169Z,37.51
2022-09-21T13:52:17.849Z,37.89
2022-09-21T13:54:44.461Z,37.98
2022-09-21T13:57:29.243Z,38.88
2022-09-21T14:00:20.074Z,40.45
2022-09-21T14:02:49.775Z,41.03
2022-09-21T14:05:40.567Z,41.67
2022-09-21T14:08:16.109Z,41.66
2022-09-21T14:11:08.878Z,43.04
2022-09-21T14:13:44.002Z,43.85
2022-09-21T14:16:37.422Z,45.10
2022-09-21T14:19:26.923Z,45.90
2022-09-21T14:22:05.537Z,46.26
2022-09-21T14:24:45.017Z,46.69
2022-09-21T14:27:45.335Z,47.92
2022-09-21T14:30:25.229Z,48.09
2022-09-21T14:33:01.032Z,48.52
2022-09-21T14:35:34.166Z,48.68
2022-09-21T14:38:11.108Z,49.23
2022-09-21T14:40:42.507Z,49.61
2022-09-21T14:43:15.743Z,50.27
2022-09-21T14:46:03.241Z,50.41
2022-09-21T14:48:30.595Z,50.50
2022-09-21T14:51:02.294Z,50.96
2022-09-21T14:53:47.079Z,50.27
2022-09-21T14:56:25.300Z,50.12
2022-09-21T14:59:21.301Z,48.99
2022-09-21T15:02:16.452Z,48.46
2022-09-21T15:05:12.428Z,48.62
2022-09-21T15:08:11.205Z,48.45
2022-09-21T15:10:57.979Z,48.64
2022-09-21T15:13:24.947Z,48.75
2022-09-21T15:16:22.173Z,49.07
2022-09-21T15:18:51.425Z,49.11
2022-09-21T15:21:29.379Z,49.60
2022-09-21T15:23:56.896Z,49.64
2022-09-21T15:26:30.677Z,49.88
2022-09-21T15:29:10.953Z,50.20
2022-09-21T15:31:42.190Z,50.28
2022-09-21T15:34:11.075Z,50.46
2022-09-21T15:36:40.509Z,50.65
2022-09-21T15:39:20.714Z,50.75
2022-09-21T15:41:49.997Z,50.96
2022-09-21T15:44:21.886Z,51.48
2022-09-21T15:46:51.768Z,51.83
2022-09-21T15:49:22.684Z,52.20
2022-09-21T15:51:58.728Z,52.43
2022-09-21T15:54:42.536Z,53.01
2022-09-21T15:57:36.122Z,53.07
2022-09-21T16:00:23.441Z,53.66
2022-09-21T16:02:59.013Z,53.58
2022-09-21T16:05:25.815Z,53.92
2022-09-21T16:08:17.849Z,54.57
2022-09-21T16:10:45.310Z,54.49
2022-09-21T16:13:41.768Z,54.59
2022-09-21T16:16:10.114Z,54.58
2022-09-21T16:18:56.418Z,54.98
2022-09-21T16:21:33.012Z,55.20
2022-09-21T16:24:22.430Z,55.37
2022-09-21T16:27:03.236Z,55.63
2022-09-21T16:29:43.130Z,55.99
2022-09-21T16:32:14.342Z,56.13
2022-09-21T16:34:42.297Z,55.73
2022-09-21T16:37:24.451Z,56.92
2022-09-21T16:39:56.138Z,56.84
2022-09-21T16:42:27.256Z,56.93
2022-09-21T16:44:55.074Z,57.38
2022-09-21T16:47:26.460Z,57.53
2022-09-21T16:50:00.542Z,57.94
2022-09-21T16:52:28.742Z,57.99
2022-09-21T16:54:56.696Z,58.01
2022-09-21T16:57:24.708Z,58.39
2022-09-21T16:59:54.514Z,58.58
2022-09-21T17:02:21.241Z,58.56
2022-09-21T17:04:50.732Z,58.53
2022-09-21T17:07:18.876Z,58.78
2022-09-21T17:09:48.320Z,58.83
2022-09-21T17:12:17.940Z,59.06
2022-09-21T17:14:46.975Z,58.97
2022-09-21T17:17:23.082Z,59.06
2022-09-21T17:19:53.082Z,58.94
2022-09-21T17:22:20.396Z,58.80
2022-09-21T17:24:51.810Z,59.08
2022-09-21T17:27:25.807Z,59.14
2022-09-21T17:29:54.081Z,59.25
2022-09-21T17:32:24.284Z,59.35
2022-09-21T17:35:01.840Z,59.55
2022-09-21T17:37:29.543Z,59.70
2022-09-21T17:39:56.288Z,59.86
2022-09-21T17:42:25.279Z,60.02
2022-09-21T17:45:02.378Z,59.91
2022-09-21T17:47:31.190Z,59.91
2022-09-21T17:50:13.271Z,60.33
2022-09-21T17:53:01.101Z,60.16
2022-09-21T17:55:29.728Z,60.44
2022-09-21T17:58:26.523Z,60.82
2022-09-21T18:01:04.823Z,60.89
2022-09-21T18:03:36.007Z,60.84
2022-09-21T18:06:03.072Z,60.95
2022-09-21T18:08:34.016Z,61.21
2022-09-21T18:11:12.782Z,61.39
2022-09-21T18:13:59.828Z,61.32
2022-09-21T18:16:55.419Z,61.57
2022-09-21T18:20:02.864Z,61.75
2022-09-21T18:22:42.156Z,61.63
2022-09-21T18:25:16.181Z,61.81
2022-09-21T18:27:48.246Z,61.75
2022-09-21T18:30:17.686Z,61.96
2022-09-21T18:33:08.383Z,61.96
2022-09-21T18:35:57.323Z,62.16
2022-09-21T18:38:26.974Z,62.05
2022-09-21T18:40:56.576Z,62.17
2022-09-21T18:43:42.303Z,62.09
2022-09-21T18:46:38.636Z,62.10
2022-09-21T18:49:47.040Z,61.98
2022-09-21T18:52:20.612Z,61.74
2022-09-21T18:54:48.285Z,61.86
2022-09-21T18:57:15.518Z,61.59
2022-09-21T18:59:42.562Z,61.82
2022-09-21T19:02:15.510Z,61.69
2022-09-21T19:04:43.669Z,61.53
2022-09-21T19:07:39.043Z,61.40
2022-09-21T19:10:25.614Z,61.34
2022-09-21T19:13:10.824Z,61.44
2022-09-21T19:16:10.299Z,61.45
2022-09-21T19:19:10.392Z,61.50
2022-09-21T19:22:18.153Z,61.50
2022-09-21T19:25:02.954Z,61.46
2022-09-21T19:27:29.703Z,61.46
2022-09-21T19:30:05.594Z,61.50
2022-09-21T19:32:45.772Z,61.41
2022-09-21T19:35:26.402Z,61.65
2022-09-21T19:37:55.537Z,61.53
2022-09-21T19:40:28.101Z,61.59
2022-09-21T19:43:08.650Z,61.68
2022-09-21T19:46:05.231Z,61.83
2022-09-21T19:48:43.490Z,61.90
2022-09-21T19:51:18.994Z,61.70
2022-09-21T19:54:11.100Z,61.53
2022-09-21T19:57:03.544Z,61.68
2022-09-21T19:59:46.473Z,61.81
2022-09-21T20:02:18.530Z,61.55
2022-09-21T20:05:23.383Z,61.71
2022-09-21T20:08:14.743Z,61.71
2022-09-21T20:10:54.713Z,61.66
2022-09-21T20:13:22.119Z,62.09
2022-09-21T20:16:04.048Z,61.77
2022-09-21T20:19:04.021Z,61.89
2022-09-21T20:21:41.383Z,61.94
2022-09-21T20:24:29.625Z,61.57
2022-09-21T20:26:56.287Z,61.70
2022-09-21T20:29:23.233Z,62.04
2022-09-21T20:31:52.433Z,61.96
2022-09-21T20:34:18.937Z,61.98
2022-09-21T20:36:46.922Z,61.97
2022-09-21T20:39:13.517Z,61.77
2022-09-21T20:41:41.485Z,61.89
2022-09-21T20:44:10.030Z,61.76
2022-09-21T20:46:36.538Z,61.79
2022-09-21T20:49:05.395Z,61.72
2022-09-21T20:51:54.221Z,61.51
2022-09-21T20:54:20.728Z,61.40
2022-09-21T20:56:50.053Z,61.44
2022-09-21T20:59:17.613Z,61.46
2022-09-21T21:01:44.559Z,61.41
2022-09-21T21:04:14.238Z,61.59
2022-09-21T21:06:41.302Z,61.43
2022-09-21T21:09:07.972Z,61.52
2022-09-21T21:11:35.479Z,61.54
2022-09-21T21:14:02.098Z,61.46
2022-09-21T21:16:28.665Z,61.59
2022-09-21T21:18:55.325Z,61.43
2022-09-21T21:21:25.715Z,61.47
2022-09-21T21:24:11.679Z,61.50
2022-09-21T21:27:00.641Z,61.46
2022-09-21T21:29:25.833Z,61.33
2022-09-21T21:31:52.492Z,61.33
2022-09-21T21:34:19.053Z,61.62
2022-09-21T21:36:45.601Z,61.53
2022-09-21T21:39:12.100Z,61.49
2022-09-21T21:41:38.653Z,61.53
2022-09-21T21:44:05.159Z,61.48
2022-09-21T21:46:31.730Z,61.54
2022-09-21T21:48:59.179Z,61.60
2022-09-21T21:51:25.729Z,61.40
2022-09-21T21:53:52.253Z,61.52
2022-09-21T21:56:20.610Z,61.52
2022-09-21T21:58:47.235Z,61.60
2022-09-21T22:01:15.136Z,61.58
2022-09-21T22:03:42.022Z,61.39
2022-09-21T22:06:09.927Z,61.42
2022-09-21T22:08:37.245Z,61.32
2022-09-21T22:11:04.627Z,61.36
2022-09-21T22:13:35.098Z,61.47
2022-09-21T22:16:13.714Z,61.18
2022-09-21T22:18:40.962Z,61.28
2022-09-21T22:21:08.928Z,61.46
2022-09-21T22:23:36.886Z,61.41
2022-09-21T22:26:11.311Z,61.54
2022-09-21T22:28:44.602Z,61.47
2022-09-21T22:31:12.934Z,61.61
2022-09-21T22:33:39.563Z,61.55
2022-09-21T22:36:13.279Z,61.65
2022-09-21T22:38:43.273Z,61.63
2022-09-21T22:41:10.272Z,61.35
2022-09-21T22:43:37.115Z,61.58
2022-09-21T22:46:04.279Z,61.68
2022-09-21T22:48:31.323Z,61.49
2022-09-21T22:50:58.195Z,61.56
2022-09-21T22:53:25.114Z,61.47
2022-09-21T22:56:05.357Z,61.49
2022-09-21T22:58:32.689Z,61.62
2022-09-21T23:01:18.839Z,61.41
2022-09-21T23:03:46.776Z,61.82
2022-09-21T23:06:14.442Z,61.60
2022-09-21T23:08:41.750Z,61.45
2022-09-21T23:11:09.937Z,61.70
2022-09-21T23:13:36.475Z,61.66
2022-09-21T23:16:04.304Z,61.80
2022-09-21T23:18:31.397Z,61.87
2022-09-21T23:20:59.247Z,61.73
2022-09-21T23:23:26.312Z,61.67
2022-09-21T23:26:03.001Z,61.75
2022-09-21T23:28:29.671Z,61.74
2022-09-21T23:31:00.758Z,61.96
2022-09-21T23:33:31.578Z,62.07
2022-09-21T23:35:58.131Z,61.71
2022-09-21T23:38:24.619Z,61.91
2022-09-21T23:40:51.539Z,61.99
2022-09-21T23:43:18.263Z,62.09
2022-09-21T23:45:44.743Z,62.31
2022-09-21T23:48:11.217Z,62.05
2022-09-21T23:50:37.697Z,62.11
2022-09-21T23:53:04.146Z,62.39
2022-09-21T23:55:31.089Z,62.38
2022-09-21T23:57:57.584Z,62.32
